createdAt,value
2019-05-20T00:00:00.239Z,92.30
2019-05-20T00:02:28.798Z,92.30
2019-05-20T00:04:57.349Z,92.50
2019-05-20T00:07:25.940Z,92.70
2019-05-20T00:09:54.515Z,92.70
2019-05-20T00:12:23.071Z,92.50
2019-05-20T00:14:51.642Z,92.70
2019-05-20T00:17:20.183Z,92.60
2019-05-20T00:19:50.753Z,92.60
2019-05-20T00:22:20.176Z,92.80
2019-05-20T00:24:48.696Z,93.00
2019-05-20T00:27:17.217Z,93.10
2019-05-20T00:29:45.789Z,93.50
2019-05-20T00:32:14.295Z,93.20
2019-05-20T00:34:42.778Z,93.30
2019-05-20T00:37:11.290Z,93.20
2019-05-20T00:39:39.868Z,93.30
2019-05-20T00:42:08.450Z,93.30
2019-05-20T00:44:36.945Z,93.70
2019-05-20T00:47:05.582Z,93.70
2019-05-20T00:49:34.077Z,93.90
2019-05-20T00:52:02.730Z,93.90
2019-05-20T00:54:31.238Z,94.10
2019-05-20T00:56:59.762Z,93.90
2019-05-20T00:59:28.335Z,93.80
2019-05-20T01:01:56.929Z,94.00
2019-05-20T01:04:25.499Z,94.00
2019-05-20T01:06:54.008Z,93.90
2019-05-20T01:09:22.491Z,93.90
2019-05-20T01:11:51.050Z,94.00
2019-05-20T01:14:19.720Z,94.20
2019-05-20T01:16:48.780Z,94.20
2019-05-20T01:19:17.315Z,94.30
2019-05-20T01:21:45.876Z,94.20
2019-05-20T01:24:14.538Z,94.40
2019-05-20T01:26:43.114Z,94.30
2019-05-20T01:29:11.666Z,94.60
2019-05-20T01:31:40.160Z,94.50
2019-05-20T01:34:08.636Z,94.60
2019-05-20T01:36:37.172Z,94.50
2019-05-20T01:39:07.014Z,94.70
2019-05-20T01:41:35.607Z,94.50
2019-05-20T01:44:04.418Z,94.60
2019-05-20T01:46:33.000Z,94.60
2019-05-20T01:49:01.522Z,94.50
2019-05-20T01:51:30.115Z,94.90
2019-05-20T01:53:58.671Z,94.80
2019-05-20T01:56:27.273Z,94.80
2019-05-20T01:58:57.372Z,94.70
2019-05-20T02:01:26.016Z,94.80
2019-05-20T02:03:54.561Z,95.00
2019-05-20T02:06:23.071Z,95.10
2019-05-20T02:08:51.563Z,95.10
2019-05-20T02:11:20.170Z,95.20
2019-05-20T02:13:53.334Z,95.10
2019-05-20T02:16:23.861Z,95.30
2019-05-20T02:18:52.347Z,95.20
2019-05-20T02:21:20.975Z,95.20
2019-05-20T02:23:49.507Z,95.60
2019-05-20T02:26:18.038Z,95.40
2019-05-20T02:28:46.601Z,95.60
2019-05-20T02:31:15.106Z,96.00
2019-05-20T02:33:51.874Z,96.00
2019-05-20T02:36:13.879Z,95.80
2019-05-20T02:38:42.428Z,95.80
2019-05-20T02:41:10.977Z,95.60
2019-05-20T02:43:39.736Z,95.60
2019-05-20T02:46:08.365Z,95.70
2019-05-20T02:48:37.135Z,95.60
2019-05-20T02:51:05.742Z,95.70
2019-05-20T02:53:34.417Z,95.80
2019-05-20T02:56:03.041Z,95.80
2019-05-20T02:58:31.699Z,95.80
2019-05-20T03:01:00.267Z,95.90
2019-05-20T03:03:28.851Z,95.90
2019-05-20T03:05:57.455Z,95.80
2019-05-20T03:08:26.047Z,95.80
2019-05-20T03:10:54.645Z,96.00
2019-05-20T03:13:23.221Z,96.50
2019-05-20T03:15:51.883Z,96.40
2019-05-20T03:18:20.521Z,96.50
2019-05-20T03:20:49.082Z,96.40
2019-05-20T03:23:17.651Z,96.40
2019-05-20T03:25:46.349Z,96.30
2019-05-20T03:28:14.980Z,96.30
2019-05-20T03:30:43.898Z,96.30
2019-05-20T03:33:12.594Z,96.30
2019-05-20T03:35:41.130Z,96.20
2019-05-20T03:38:09.684Z,96.00
2019-05-20T03:40:38.288Z,95.90
2019-05-20T03:43:06.867Z,95.90
2019-05-20T03:45:35.449Z,95.90
2019-05-20T03:48:04.093Z,95.90
2019-05-20T03:50:32.592Z,95.90
2019-05-20T03:53:01.169Z,95.70
2019-05-20T03:55:29.730Z,95.60
2019-05-20T03:57:58.242Z,95.60
2019-05-20T04:00:47.466Z,95.50
2019-05-20T04:03:17.047Z,95.40
2019-05-20T04:05:45.631Z,95.10
2019-05-20T04:08:14.216Z,95.10
2019-05-20T04:10:42.913Z,95.10
2019-05-20T04:13:11.496Z,95.30
2019-05-20T04:15:40.053Z,95.10
2019-05-20T04:18:08.639Z,94.90
2019-05-20T04:20:37.194Z,94.90
2019-05-20T04:23:05.829Z,94.90
2019-05-20T04:25:34.398Z,94.70
2019-05-20T04:28:03.068Z,94.60
2019-05-20T04:30:31.549Z,94.50
2019-05-20T04:33:00.118Z,94.20
2019-05-20T04:35:28.678Z,94.20
2019-05-20T04:37:57.290Z,94.30
2019-05-20T04:40:26.877Z,93.70
2019-05-20T04:42:55.455Z,93.80
2019-05-20T04:45:24.030Z,93.80
2019-05-20T04:47:52.640Z,93.70
2019-05-20T04:50:21.205Z,93.70
2019-05-20T04:52:49.777Z,93.70
2019-05-20T04:55:18.336Z,93.80
2019-05-20T04:57:46.903Z,93.70
2019-05-20T05:00:17.431Z,93.70
2019-05-20T05:02:46.028Z,93.70
2019-05-20T05:05:14.666Z,93.70
2019-05-20T05:07:43.159Z,93.60
2019-05-20T05:10:12.971Z,93.70
2019-05-20T05:12:41.634Z,93.70
2019-05-20T05:15:11.045Z,93.70
2019-05-20T05:17:39.592Z,93.60
2019-05-20T05:20:17.693Z,93.40
2019-05-20T05:22:39.202Z,93.40
2019-05-20T05:25:07.855Z,93.10
2019-05-20T05:27:36.472Z,92.90
2019-05-20T05:30:08.747Z,92.80
2019-05-20T05:32:43.694Z,92.70
2019-05-20T05:35:17.836Z,92.50
2019-05-20T05:37:46.503Z,92.40
2019-05-20T05:40:15.512Z,92.00
2019-05-20T05:42:44.117Z,92.20
2019-05-20T05:45:14.148Z,92.20
2019-05-20T05:47:42.624Z,92.10
2019-05-20T05:50:11.423Z,91.80
2019-05-20T05:52:40.166Z,91.80
2019-05-20T05:55:08.891Z,91.70
2019-05-20T05:57:37.437Z,91.20
2019-05-20T06:00:07.669Z,90.90
2019-05-20T06:02:41.168Z,90.40
2019-05-20T06:05:07.441Z,90.20
2019-05-20T06:07:39.262Z,89.80
2019-05-20T06:10:08.079Z,89.60
2019-05-20T06:12:36.650Z,89.20
2019-05-20T06:15:08.731Z,88.40
2019-05-20T06:17:37.377Z,88.20
2019-05-20T06:20:07.043Z,87.40
2019-05-20T06:22:35.573Z,87.10
2019-05-20T06:25:05.332Z,85.30
2019-05-20T06:27:33.904Z,85.50
2019-05-20T06:30:02.413Z,85.40
2019-05-20T06:32:30.995Z,83.50
2019-05-20T06:34:59.575Z,85.00
2019-05-20T06:37:32.788Z,83.10
2019-05-20T06:40:01.384Z,82.40
2019-05-20T06:42:29.960Z,82.00
2019-05-20T06:44:58.848Z,81.40
2019-05-20T06:47:27.611Z,80.70
2019-05-20T06:49:56.186Z,80.40
2019-05-20T06:52:35.405Z,79.80
2019-05-20T06:54:54.913Z,79.80
2019-05-20T06:57:23.981Z,79.70
2019-05-20T06:59:52.721Z,79.00
2019-05-20T07:02:21.251Z,78.10
2019-05-20T07:04:49.772Z,76.70
2019-05-20T07:07:21.325Z,75.00
2019-05-20T07:09:48.559Z,74.00
2019-05-20T07:12:17.061Z,72.00
2019-05-20T07:14:45.650Z,71.70
2019-05-20T07:17:14.221Z,70.90
2019-05-20T07:19:42.790Z,72.60
2019-05-20T07:22:11.360Z,72.30
2019-05-20T07:24:39.842Z,72.00
2019-05-20T07:27:09.131Z,71.90
2019-05-20T07:29:37.637Z,72.10
2019-05-20T07:32:06.310Z,71.10
2019-05-20T07:34:34.869Z,70.80
2019-05-20T07:37:04.177Z,69.30
2019-05-20T07:39:32.832Z,70.70
2019-05-20T07:42:01.403Z,67.70
2019-05-20T07:44:29.896Z,68.40
2019-05-20T07:46:58.482Z,64.70
2019-05-20T07:49:27.369Z,63.10
2019-05-20T07:51:56.838Z,62.00
2019-05-20T07:54:26.331Z,61.70
2019-05-20T07:56:57.231Z,61.80
2019-05-20T07:59:28.228Z,61.40
2019-05-20T08:01:56.822Z,61.10
2019-05-20T08:04:25.541Z,63.30
2019-05-20T08:06:54.138Z,60.20
2019-05-20T08:09:22.619Z,60.30
2019-05-20T08:11:51.204Z,61.20
2019-05-20T08:14:19.767Z,59.50
2019-05-20T08:16:48.348Z,59.60
2019-05-20T08:19:16.957Z,59.50
2019-05-20T08:21:45.504Z,59.00
2019-05-20T08:24:14.079Z,58.00
2019-05-20T08:26:42.698Z,59.50
2019-05-20T08:29:11.318Z,57.90
2019-05-20T08:31:39.886Z,57.40
2019-05-20T08:34:08.476Z,56.80
2019-05-20T08:36:37.006Z,56.60
2019-05-20T08:39:07.870Z,55.80
2019-05-20T08:41:37.130Z,55.30
2019-05-20T08:44:05.678Z,53.60
2019-05-20T08:46:34.252Z,52.40
2019-05-20T08:49:02.826Z,52.10
2019-05-20T08:51:31.442Z,51.50
2019-05-20T08:54:00.010Z,51.30
2019-05-20T08:56:28.832Z,51.10
2019-05-20T08:58:57.422Z,49.80
2019-05-20T09:01:27.548Z,50.90
2019-05-20T09:03:56.078Z,51.70
2019-05-20T09:06:24.654Z,49.70
2019-05-20T09:08:53.222Z,48.80
2019-05-20T09:11:24.984Z,48.70
2019-05-20T09:13:53.492Z,47.60
2019-05-20T09:16:22.113Z,46.30
2019-05-20T09:18:50.742Z,44.70
2019-05-20T09:21:19.297Z,44.30
2019-05-20T09:23:47.850Z,45.60
2019-05-20T09:26:16.522Z,44.50
2019-05-20T09:28:45.124Z,41.50
2019-05-20T09:31:13.866Z,40.60
2019-05-20T09:33:42.731Z,40.50
2019-05-20T09:36:11.432Z,41.90
2019-05-20T09:38:39.985Z,40.80
2019-05-20T09:41:08.565Z,41.30
2019-05-20T09:43:38.881Z,40.90
2019-05-20T09:46:08.489Z,40.40
2019-05-20T09:48:37.394Z,41.40
2019-05-20T09:51:05.923Z,42.70
2019-05-20T09:53:34.487Z,41.90
2019-05-20T09:56:03.089Z,40.50
2019-05-20T09:58:31.634Z,41.70
2019-05-20T10:01:00.159Z,41.10
2019-05-20T10:03:28.691Z,41.10
2019-05-20T10:05:57.278Z,39.60
2019-05-20T10:08:37.645Z,39.60
2019-05-20T10:10:59.606Z,39.90
2019-05-20T10:13:26.254Z,39.30
2019-05-20T10:15:54.873Z,38.40
2019-05-20T10:18:36.555Z,39.00
2019-05-20T10:20:53.662Z,38.40
2019-05-20T10:23:22.218Z,39.90
2019-05-20T10:25:50.788Z,39.80
2019-05-20T10:28:19.334Z,39.70
2019-05-20T10:30:47.892Z,38.10
2019-05-20T10:33:16.393Z,39.50
2019-05-20T10:35:45.029Z,40.10
2019-05-20T10:38:13.606Z,40.20
2019-05-20T10:40:42.805Z,40.90
2019-05-20T10:43:11.365Z,41.70
2019-05-20T10:45:39.922Z,40.30
2019-05-20T10:48:09.132Z,40.50
2019-05-20T10:50:37.909Z,41.60
2019-05-20T10:53:06.577Z,41.40
2019-05-20T10:55:35.125Z,43.60
2019-05-20T10:58:03.896Z,44.40
2019-05-20T11:00:32.753Z,45.10
2019-05-20T11:03:01.292Z,46.50
2019-05-20T11:05:29.896Z,47.50
2019-05-20T11:07:58.543Z,48.40
2019-05-20T11:10:27.231Z,50.30
2019-05-20T11:12:55.797Z,49.10
2019-05-20T11:15:24.361Z,50.80
2019-05-20T11:17:52.945Z,51.80
2019-05-20T11:20:22.274Z,53.60
2019-05-20T11:22:50.901Z,56.90
2019-05-20T11:25:20.963Z,55.30
2019-05-20T11:27:49.591Z,55.30
2019-05-20T11:30:18.393Z,55.50
2019-05-20T11:32:46.970Z,55.90
2019-05-20T11:35:16.811Z,55.30
2019-05-20T11:37:45.474Z,55.50
2019-05-20T11:40:14.895Z,55.20
2019-05-20T11:42:43.738Z,55.80
2019-05-20T11:45:13.976Z,56.00
2019-05-20T11:47:42.579Z,56.60
2019-05-20T11:50:11.989Z,57.10
2019-05-20T11:52:40.582Z,57.40
2019-05-20T11:55:10.252Z,57.90
2019-05-20T11:57:38.913Z,56.80
2019-05-20T12:00:09.971Z,57.00
2019-05-20T12:02:42.184Z,57.20
2019-05-20T12:05:10.809Z,57.30
2019-05-20T12:07:39.399Z,56.70
2019-05-20T12:10:09.902Z,56.60
2019-05-20T12:12:38.626Z,57.30
2019-05-20T12:15:09.491Z,57.50
2019-05-20T12:17:37.999Z,57.30
2019-05-20T12:20:11.891Z,56.80
2019-05-20T12:22:39.584Z,57.30
2019-05-20T12:25:08.481Z,58.00
2019-05-20T12:27:37.069Z,57.60
2019-05-20T12:30:07.769Z,57.20
2019-05-20T12:32:37.343Z,57.70
2019-05-20T12:35:07.563Z,57.30
2019-05-20T12:37:36.129Z,57.30
2019-05-20T12:40:08.259Z,58.10
2019-05-20T12:42:37.169Z,57.30
2019-05-20T12:45:09.932Z,57.30
2019-05-20T12:47:38.694Z,57.80
2019-05-20T12:50:08.106Z,58.30
2019-05-20T12:52:36.766Z,58.20
2019-05-20T12:55:09.528Z,57.80
2019-05-20T12:57:36.906Z,57.60
2019-05-20T13:00:13.785Z,58.40
2019-05-20T13:02:42.664Z,59.20
2019-05-20T13:05:11.876Z,58.60
2019-05-20T13:07:40.437Z,58.60
2019-05-20T13:10:26.546Z,59.30
2019-05-20T13:12:40.429Z,59.80
2019-05-20T13:15:10.139Z,59.50
2019-05-20T13:17:43.849Z,59.90
2019-05-20T13:20:09.143Z,59.30
2019-05-20T13:22:37.727Z,59.50
2019-05-20T13:25:06.571Z,60.00
2019-05-20T13:27:35.130Z,60.10
2019-05-20T13:30:07.562Z,59.70
2019-05-20T13:32:36.224Z,60.10
2019-05-20T13:35:06.417Z,60.60
2019-05-20T13:37:35.004Z,60.90
2019-05-20T13:40:05.101Z,61.70
2019-05-20T13:42:33.701Z,61.60
2019-05-20T13:45:02.298Z,61.80
2019-05-20T13:47:30.884Z,62.10
2019-05-20T13:49:59.404Z,62.80
2019-05-20T13:52:28.099Z,62.80
2019-05-20T13:54:56.643Z,62.70
2019-05-20T13:57:25.248Z,63.10
2019-05-20T13:59:53.841Z,62.80
2019-05-20T14:02:22.385Z,63.30
2019-05-20T14:04:50.944Z,63.70
2019-05-20T14:07:19.468Z,63.80
2019-05-20T14:09:48.029Z,64.20
2019-05-20T14:12:16.574Z,64.50
2019-05-20T14:14:45.160Z,66.80
2019-05-20T14:17:13.735Z,70.90
2019-05-20T14:19:42.427Z,70.70
2019-05-20T14:22:11.016Z,71.60
2019-05-20T14:24:39.626Z,73.50
2019-05-20T14:27:08.202Z,73.60
2019-05-20T14:29:36.807Z,74.30
2019-05-20T14:32:05.492Z,74.70
2019-05-20T14:34:34.086Z,75.20
2019-05-20T14:37:02.609Z,76.20
2019-05-20T14:39:31.262Z,78.70
2019-05-20T14:41:59.854Z,78.10
2019-05-20T14:44:28.426Z,80.40
2019-05-20T14:46:56.980Z,77.50
2019-05-20T14:49:25.560Z,81.90
2019-05-20T14:51:54.213Z,81.00
2019-05-20T14:54:22.841Z,86.00
2019-05-20T14:56:51.412Z,86.60
2019-05-20T14:59:19.943Z,85.90
2019-05-20T15:01:48.515Z,87.50
2019-05-20T15:04:17.151Z,87.40
2019-05-20T15:06:45.755Z,89.20
2019-05-20T15:09:14.365Z,90.00
2019-05-20T15:11:42.967Z,90.40
2019-05-20T15:14:11.561Z,90.10
2019-05-20T15:16:40.162Z,90.10
2019-05-20T15:19:08.789Z,90.00
2019-05-20T15:21:37.465Z,90.70
2019-05-20T15:24:06.101Z,91.40
2019-05-20T15:26:34.698Z,91.40
2019-05-20T15:29:04.328Z,92.10
2019-05-20T15:31:33.460Z,92.70
2019-05-20T15:34:02.132Z,92.80
2019-05-20T15:36:31.965Z,92.10
2019-05-20T15:39:00.633Z,92.40
2019-05-20T15:41:29.276Z,93.60
2019-05-20T15:43:57.835Z,93.40
2019-05-20T15:46:26.459Z,92.70
2019-05-20T15:48:55.015Z,93.00
2019-05-20T15:51:23.616Z,93.10
2019-05-20T15:53:52.219Z,94.00
2019-05-20T15:56:20.823Z,94.40
2019-05-20T15:58:49.528Z,95.50
2019-05-20T16:01:18.107Z,95.70
2019-05-20T16:03:50.535Z,96.10
2019-05-20T16:06:16.938Z,94.70
2019-05-20T16:08:45.489Z,92.70
2019-05-20T16:11:14.032Z,94.50
2019-05-20T16:13:42.651Z,96.50
2019-05-20T16:16:13.126Z,95.50
2019-05-20T16:18:41.492Z,96.20
2019-05-20T16:21:10.102Z,96.20
2019-05-20T16:23:38.762Z,96.70
2019-05-20T16:26:07.426Z,94.20
2019-05-20T16:28:35.994Z,94.20
2019-05-20T16:31:04.685Z,95.90
2019-05-20T16:33:33.276Z,94.90
2019-05-20T16:36:02.062Z,95.40
2019-05-20T16:38:30.602Z,95.40
2019-05-20T16:40:59.303Z,93.80
2019-05-20T16:43:27.882Z,95.90
2019-05-20T16:45:56.500Z,96.30
2019-05-20T16:48:25.122Z,96.30
2019-05-20T16:50:56.424Z,96.50
2019-05-20T16:53:25.075Z,96.70
2019-05-20T16:55:53.731Z,97.50
2019-05-20T16:58:22.405Z,94.80
2019-05-20T17:00:51.103Z,96.20
2019-05-20T17:03:20.892Z,97.20
2019-05-20T17:05:49.547Z,96.90
2019-05-20T17:08:18.137Z,97.50
2019-05-20T17:10:46.807Z,97.40
2019-05-20T17:13:15.416Z,97.80
2019-05-20T17:15:44.693Z,97.70
2019-05-20T17:18:14.876Z,98.00
2019-05-20T17:20:45.924Z,97.70
2019-05-20T17:23:13.978Z,98.30
2019-05-20T17:25:42.606Z,97.80
2019-05-20T17:28:11.325Z,98.10
2019-05-20T17:30:45.515Z,97.20
2019-05-20T17:33:10.383Z,97.40
2019-05-20T17:35:39.223Z,97.90
2019-05-20T17:38:08.071Z,97.90
2019-05-20T17:40:37.292Z,97.20
2019-05-20T17:43:05.979Z,97.80
2019-05-20T17:45:34.681Z,97.50
2019-05-20T17:48:04.752Z,97.80
2019-05-20T17:50:33.488Z,97.70
2019-05-20T17:53:02.363Z,97.80
2019-05-20T17:55:32.154Z,98.00
2019-05-20T17:58:00.808Z,97.60
2019-05-20T18:00:29.549Z,98.30
2019-05-20T18:02:58.618Z,98.60
2019-05-20T18:05:27.468Z,98.00
2019-05-20T18:07:56.189Z,98.00
2019-05-20T18:10:25.395Z,98.30
2019-05-20T18:12:54.198Z,98.10
2019-05-20T18:15:22.841Z,97.60
2019-05-20T18:17:51.856Z,97.30
2019-05-20T18:20:22.495Z,97.70
2019-05-20T18:22:51.683Z,99.80
2019-05-20T18:25:31.437Z,99.90
2019-05-20T18:28:00.056Z,99.90
2019-05-20T18:30:32.474Z,99.90
2019-05-20T18:33:01.186Z,99.90
2019-05-20T18:35:31.648Z,99.90
2019-05-20T18:38:01.690Z,99.90
2019-05-20T18:40:31.161Z,99.90
2019-05-20T18:43:00.141Z,99.90
2019-05-20T18:45:28.870Z,99.90
2019-05-20T18:47:58.537Z,99.90
2019-05-20T18:50:30.631Z,99.90
2019-05-20T18:53:01.054Z,99.90
2019-05-20T18:55:29.714Z,99.90
2019-05-20T18:57:58.331Z,99.90
2019-05-20T19:00:27.327Z,99.90
2019-05-20T19:02:56.153Z,99.90
2019-05-20T19:05:26.710Z,99.90
2019-05-20T19:07:56.456Z,99.90
2019-05-20T19:10:25.501Z,99.90
2019-05-20T19:12:54.738Z,99.90
2019-05-20T19:15:24.786Z,99.90
2019-05-20T19:17:54.173Z,99.90
2019-05-20T19:20:23.318Z,99.90
2019-05-20T19:22:53.430Z,99.90
2019-05-20T19:25:22.074Z,99.90
2019-05-20T19:27:51.432Z,99.90
2019-05-20T19:30:20.311Z,99.90
2019-05-20T19:32:49.696Z,99.90
2019-05-20T19:35:18.359Z,99.90
2019-05-20T19:37:49.309Z,99.90
2019-05-20T19:40:19.435Z,99.90
2019-05-20T19:42:49.790Z,99.90
2019-05-20T19:45:18.600Z,99.90
2019-05-20T19:47:50.747Z,99.90
2019-05-20T19:50:19.488Z,99.90
2019-05-20T19:52:48.423Z,99.90
2019-05-20T19:55:18.995Z,99.90
2019-05-20T19:57:47.442Z,99.90
2019-05-20T20:00:18.628Z,99.90
2019-05-20T20:02:48.835Z,99.90
2019-05-20T20:05:17.737Z,99.90
2019-05-20T20:07:46.691Z,99.90
2019-05-20T20:10:15.569Z,99.90
2019-05-20T20:12:44.450Z,99.90
2019-05-20T20:15:20.044Z,99.90
2019-05-20T20:17:48.672Z,99.90
2019-05-20T20:20:18.050Z,99.90
2019-05-20T20:22:46.694Z,99.90
2019-05-20T20:25:15.999Z,99.90
2019-05-20T20:27:44.620Z,99.90
2019-05-20T20:30:13.494Z,99.90
2019-05-20T20:32:42.232Z,99.90
2019-05-20T20:35:11.331Z,99.90
2019-05-20T20:37:40.031Z,99.90
2019-05-20T20:40:08.869Z,99.90
2019-05-20T20:42:37.517Z,99.90
2019-05-20T20:45:07.075Z,99.90
2019-05-20T20:47:41.873Z,99.90
2019-05-20T20:50:06.541Z,99.90
2019-05-20T20:52:35.142Z,99.90
2019-05-20T20:55:04.827Z,99.90
2019-05-20T20:57:33.365Z,99.90
2019-05-20T21:00:02.109Z,99.90
2019-05-20T21:02:30.719Z,99.90
2019-05-20T21:04:59.289Z,99.90
2019-05-20T21:07:27.856Z,99.90
2019-05-20T21:09:56.478Z,99.90
2019-05-20T21:12:25.046Z,99.90
2019-05-20T21:14:53.658Z,99.90
2019-05-20T21:17:22.218Z,99.90
2019-05-20T21:19:50.788Z,99.90
2019-05-20T21:22:19.294Z,99.90
2019-05-20T21:24:47.804Z,99.90
2019-05-20T21:27:16.395Z,99.90
2019-05-20T21:29:44.977Z,99.90
2019-05-20T21:32:13.518Z,99.90
2019-05-20T21:34:42.137Z,99.90
2019-05-20T21:37:10.673Z,99.90
2019-05-20T21:39:39.253Z,99.90
2019-05-20T21:42:07.810Z,99.90
2019-05-20T21:44:36.403Z,99.90
2019-05-20T21:47:04.986Z,99.90
2019-05-20T21:49:33.554Z,99.90
2019-05-20T21:52:02.056Z,99.90
2019-05-20T21:54:30.663Z,99.90
2019-05-20T21:56:59.792Z,99.90
2019-05-20T21:59:28.343Z,99.90
2019-05-20T22:01:56.831Z,99.90
2019-05-20T22:04:25.338Z,99.90
2019-05-20T22:06:53.879Z,99.90
2019-05-20T22:09:22.420Z,99.90
2019-05-20T22:11:50.924Z,99.90
2019-05-20T22:14:19.535Z,99.90
2019-05-20T22:16:48.192Z,99.90
2019-05-20T22:19:16.686Z,99.90
2019-05-20T22:21:52.279Z,99.90
2019-05-20T22:24:20.759Z,99.90
2019-05-20T22:26:49.336Z,99.90
2019-05-20T22:29:17.819Z,99.90
2019-05-20T22:32:22.565Z,99.90
2019-05-20T22:34:53.608Z,99.90
2019-05-20T22:37:21.392Z,99.90
2019-05-20T22:39:49.944Z,99.90
2019-05-20T22:42:18.465Z,99.90
2019-05-20T22:44:47.042Z,99.90
2019-05-20T22:47:15.649Z,99.90
2019-05-20T22:49:44.131Z,99.90
2019-05-20T22:52:12.712Z,99.90
2019-05-20T22:54:41.206Z,99.90
2019-05-20T22:57:09.819Z,99.90
2019-05-20T22:59:38.374Z,99.90
2019-05-20T23:02:07.015Z,99.90
2019-05-20T23:04:35.558Z,99.90
2019-05-20T23:07:04.240Z,99.90
2019-05-20T23:09:32.809Z,99.90
2019-05-20T23:12:01.457Z,99.90
2019-05-20T23:14:30.045Z,99.90
2019-05-20T23:16:58.572Z,99.90
2019-05-20T23:19:27.117Z,99.90
2019-05-20T23:21:55.637Z,99.90
2019-05-20T23:24:24.193Z,99.90
2019-05-20T23:26:52.891Z,99.90
2019-05-20T23:29:21.443Z,99.90
2019-05-20T23:31:49.954Z,99.90
2019-05-20T23:34:18.502Z,99.90
2019-05-20T23:36:47.079Z,99.90
2019-05-20T23:39:15.645Z,99.90
2019-05-20T23:41:44.163Z,99.90
2019-05-20T23:44:12.746Z,99.90
2019-05-20T23:46:41.324Z,99.90
2019-05-20T23:49:09.819Z,99.90
2019-05-20T23:51:38.351Z,99.90
2019-05-20T23:54:06.926Z,99.90
2019-05-20T23:56:35.435Z,99.90
2019-05-20T23:59:03.998Z,99.90
